sensor_id;sensor_type;location;lat;lon;timestamp;pressure;altitude;pressure_sealevel;temperature;humidity
44734;BME280;30462;52.446;-1.930;2023-08-20T00:00:18;100428.2305;;;;
44734;BME280;30462;52.446;-1.930;2023-08-20T00:01:19;100428.5781;;;;
44734;BME280;30462;52.446;-1.930;2023-08-20T00:02:17;100430.4766;;;;
44734;BME280;30462;52.446;-1.930;2023-08-20T00:03:18;100430.9922;;;;
44734;BME280;30462;52.446;-1.930;2023-08-20T00:04:18;100433.3633;;;;
44734;BME280;30462;52.446;-1.930;2023-08-20T00:05:18;100435.4375;;;;
44734;BME280;30462;52.446;-1.930;2023-08-20T00:06:18;100434.7891;;;;
44734;BME280;30462;52.446;-1.930;2023-08-20T00:07:18;100433.4141;;;;
44734;BME280;30462;52.446;-1.930;2023-08-20T00:08:18;100435.3047;;;;
44734;BME280;30462;52.446;-1.930;2023-08-20T00:09:18;100435.2148;;;;
44734;BME280;30462;52.446;-1.930;2023-08-20T00:10:18;100433.0664;;;;
44734;BME280;30462;52.446;-1.930;2023-08-20T00:11:17;100431.8633;;;;
44734;BME280;30462;52.446;-1.930;2023-08-20T00:12:18;100430.7227;;;;
44734;BME280;30462;52.446;-1.930;2023-08-20T00:13:18;100429.2969;;;;
44734;BME280;30462;52.446;-1.930;2023-08-20T00:14:18;100430.4492;;;;
44734;BME280;30462;52.446;-1.930;2023-08-20T00:15:18;100430.4375;;;;
44734;BME280;30462;52.446;-1.930;2023-08-20T00:16:18;100429.9492;;;;
44734;BME280;30462;52.446;-1.930;2023-08-20T00:17:18;100431.1875;;;;
44734;BME280;30462;52.446;-1.930;2023-08-20T00:18:18;100430.0273;;;;
44734;BME280;30462;52.446;-1.930;2023-08-20T00:19:18;100436.7578;;;;
44734;BME280;30462;52.446;-1.930;2023-08-20T00:20:18;100436.0234;;;;
44734;BME280;30462;52.446;-1.930;2023-08-20T00:21:18;100432.8906;;;;
44734;BME280;30462;52.446;-1.930;2023-08-20T00:22:18;100434.3359;;;;
44734;BME280;30462;52.446;-1.930;2023-08-20T00:23:19;100430.6914;;;;
44734;BME280;30462;52.446;-1.930;2023-08-20T00:24:18;100434.9922;;;;
44734;BME280;30462;52.446;-1.930;2023-08-20T00:25:18;100433.793;;;;
44734;BME280;30462;52.446;-1.930;2023-08-20T00:26:18;100432.4805;;;;
44734;BME280;30462;52.446;-1.930;2023-08-20T00:27:18;100435.3828;;;;
44734;BME280;30462;52.446;-1.930;2023-08-20T00:28:18;100435.168;;;;
44734;BME280;30462;52.446;-1.930;2023-08-20T00:29:17;100437.2148;;;;
44734;BME280;30462;52.446;-1.930;2023-08-20T00:30:18;100436.9766;;;;
44734;BME280;30462;52.446;-1.930;2023-08-20T00:31:18;100437.1836;;;;
44734;BME280;30462;52.446;-1.930;2023-08-20T00:32:18;100436.5625;;;;
44734;BME280;30462;52.446;-1.930;2023-08-20T00:33:18;100434.0352;;;;
44734;BME280;30462;52.446;-1.930;2023-08-20T00:34:18;100435.4727;;;;
44734;BME280;30462;52.446;-1.930;2023-08-20T00:35:17;100432.8008;;;;
44734;BME280;30462;52.446;-1.930;2023-08-20T00:36:18;100433.4844;;;;
44734;BME280;30462;52.446;-1.930;2023-08-20T00:37:18;100432.1172;;;;
44734;BME280;30462;52.446;-1.930;2023-08-20T00:38:18;100431.5;;;;
44734;BME280;30462;52.446;-1.930;2023-08-20T00:39:18;100431.2969;;;;
44734;BME280;30462;52.446;-1.930;2023-08-20T00:40:18;100427.1914;;;;
44734;BME280;30462;52.446;-1.930;2023-08-20T00:41:18;100428.9492;;;;
44734;BME280;30462;52.446;-1.930;2023-08-20T00:42:18;100427.6367;;;;
44734;BME280;30462;52.446;-1.930;2023-08-20T00:43:17;100424.0469;;;;
44734;BME280;30462;52.446;-1.930;2023-08-20T00:44:18;100423.7266;;;;
44734;BME280;30462;52.446;-1.930;2023-08-20T00:45:18;100417.2969;;;;
44734;BME280;30462;52.446;-1.930;2023-08-20T00:46:18;100417.9609;;;;
44734;BME280;30462;52.446;-1.930;2023-08-20T00:47:18;100421.8945;;;;
44734;BME280;30462;52.446;-1.930;2023-08-20T00:48:18;100426.5313;;;;
44734;BME280;30462;52.446;-1.930;2023-08-20T00:49:18;100426.8789;;;;
44734;BME280;30462;52.446;-1.930;2023-08-20T00:50:18;100429.5156;;;;
44734;BME280;30462;52.446;-1.930;2023-08-20T00:51:18;100429.8672;;;;
44734;BME280;30462;52.446;-1.930;2023-08-20T00:52:18;100434.3906;;;;
44734;BME280;30462;52.446;-1.930;2023-08-20T00:53:17;100435.8711;;;;
44734;BME280;30462;52.446;-1.930;2023-08-20T00:54:17;100439.3945;;;;
44734;BME280;30462;52.446;-1.930;2023-08-20T00:55:18;100435.2969;;;;
44734;BME280;30462;52.446;-1.930;2023-08-20T00:56:18;100432.6875;;;;
44734;BME280;30462;52.446;-1.930;2023-08-20T00:57:18;100436.1094;;;;
44734;BME280;30462;52.446;-1.930;2023-08-20T00:58:18;100432.5117;;;;
44734;BME280;30462;52.446;-1.930;2023-08-20T00:59:18;100433.7383;;;;
44734;BME280;30462;52.446;-1.930;2023-08-20T01:00:18;100436.3594;;;;
44734;BME280;30462;52.446;-1.930;2023-08-20T01:01:18;100439.2578;;;;
44734;BME280;30462;52.446;-1.930;2023-08-20T01:02:17;100441.1523;;;;
44734;BME280;30462;52.446;-1.930;2023-08-20T01:03:18;100442.5039;;;;
44734;BME280;30462;52.446;-1.930;2023-08-20T01:04:18;100442.2813;;;;
44734;BME280;30462;52.446;-1.930;2023-08-20T01:05:18;100443.2227;;;;
44734;BME280;30462;52.446;-1.930;2023-08-20T01:06:20;100444.4219;;;;
44734;BME280;30462;52.446;-1.930;2023-08-20T01:07:21;100444.4688;;;;
44734;BME280;30462;52.446;-1.930;2023-08-20T01:09:32;100445.1094;;;;
44734;BME280;30462;52.446;-1.930;2023-08-20T01:10:19;100446.7227;;;;
44734;BME280;30462;52.446;-1.930;2023-08-20T01:11:20;100447.2773;;;;
44734;BME280;30462;52.446;-1.930;2023-08-20T01:12:17;100445.3945;;;;
44734;BME280;30462;52.446;-1.930;2023-08-20T01:13:18;100447.3164;;;;
44734;BME280;30462;52.446;-1.930;2023-08-20T01:14:18;100442.9023;;;;
44734;BME280;30462;52.446;-1.930;2023-08-20T01:15:18;100441.0195;;;;
44734;BME280;30462;52.446;-1.930;2023-08-20T01:16:18;100443.043;;;;
44734;BME280;30462;52.446;-1.930;2023-08-20T01:17:18;100439.3242;;;;
44734;BME280;30462;52.446;-1.930;2023-08-20T01:18:18;100440.5117;;;;
44734;BME280;30462;52.446;-1.930;2023-08-20T01:19:18;100437.125;;;;
44734;BME280;30462;52.446;-1.930;2023-08-20T01:20:18;100439.8945;;;;
44734;BME280;30462;52.446;-1.930;2023-08-20T01:21:20;100434.793;;;;
44734;BME280;30462;52.446;-1.930;2023-08-20T01:24:23;100426.0781;;;;
44734;BME280;30462;52.446;-1.930;2023-08-20T01:25:25;100430.4805;;;;
44734;BME280;30462;52.446;-1.930;2023-08-20T01:28:22;100437.8203;;;;
44734;BME280;30462;52.446;-1.930;2023-08-20T01:29:17;100435.207;;;;
44734;BME280;30462;52.446;-1.930;2023-08-20T01:30:18;100435.3242;;;;
44734;BME280;30462;52.446;-1.930;2023-08-20T01:31:17;100440.0508;;;;
44734;BME280;30462;52.446;-1.930;2023-08-20T01:32:17;100440.1797;;;;
44734;BME280;30462;52.446;-1.930;2023-08-20T01:33:18;100441.7773;;;;
44734;BME280;30462;52.446;-1.930;2023-08-20T01:34:17;100444.0117;;;;
44734;BME280;30462;52.446;-1.930;2023-08-20T01:35:18;100446.7109;;;;
44734;BME280;30462;52.446;-1.930;2023-08-20T01:36:18;100442.9258;;;;
44734;BME280;30462;52.446;-1.930;2023-08-20T01:37:18;100445.2969;;;;
44734;BME280;30462;52.446;-1.930;2023-08-20T01:38:18;100444.4648;;;;
44734;BME280;30462;52.446;-1.930;2023-08-20T01:39:18;100446.5664;;;;
44734;BME280;30462;52.446;-1.930;2023-08-20T01:40:17;100447.9102;;;;
44734;BME280;30462;52.446;-1.930;2023-08-20T01:41:18;100447.7852;;;;
44734;BME280;30462;52.446;-1.930;2023-08-20T01:42:18;100451.2852;;;;
44734;BME280;30462;52.446;-1.930;2023-08-20T01:43:18;100452.2148;;;;
44734;BME280;30462;52.446;-1.930;2023-08-20T01:44:18;100451.7617;;;;
44734;BME280;30462;52.446;-1.930;2023-08-20T01:45:17;100452.6133;;;;
44734;BME280;30462;52.446;-1.930;2023-08-20T01:46:17;100454.6016;;;;
44734;BME280;30462;52.446;-1.930;2023-08-20T01:47:18;100456.8008;;;;
44734;BME280;30462;52.446;-1.930;2023-08-20T01:48:18;100453.8867;;;;
44734;BME280;30462;52.446;-1.930;2023-08-20T01:49:18;100454.9844;;;;
44734;BME280;30462;52.446;-1.930;2023-08-20T01:50:18;100457.1836;;;;
44734;BME280;30462;52.446;-1.930;2023-08-20T01:51:18;100457.3008;;;;
44734;BME280;30462;52.446;-1.930;2023-08-20T01:52:18;100458.9063;;;;
44734;BME280;30462;52.446;-1.930;2023-08-20T01:53:18;100459.9961;;;;
44734;BME280;30462;52.446;-1.930;2023-08-20T01:54:18;100457.1211;;;;
44734;BME280;30462;52.446;-1.930;2023-08-20T01:55:18;100460.4844;;;;
44734;BME280;30462;52.446;-1.930;2023-08-20T01:56:18;100463.7031;;;;
44734;BME280;30462;52.446;-1.930;2023-08-20T01:57:18;100464.1602;;;;
44734;BME280;30462;52.446;-1.930;2023-08-20T01:58:18;100467.1914;;;;
44734;BME280;30462;52.446;-1.930;2023-08-20T01:59:18;100467.3555;;;;
44734;BME280;30462;52.446;-1.930;2023-08-20T02:00:18;100471.5625;;;;
44734;BME280;30462;52.446;-1.930;2023-08-20T02:01:18;100473.1094;;;;
44734;BME280;30462;52.446;-1.930;2023-08-20T02:02:18;100474.668;;;;
44734;BME280;30462;52.446;-1.930;2023-08-20T02:03:17;100479.6719;;;;
44734;BME280;30462;52.446;-1.930;2023-08-20T02:04:18;100476.2656;;;;
44734;BME280;30462;52.446;-1.930;2023-08-20T02:05:18;100474.543;;;;
44734;BME280;30462;52.446;-1.930;2023-08-20T02:06:18;100474.75;;;;
44734;BME280;30462;52.446;-1.930;2023-08-20T02:07:18;100472.8242;;;;
44734;BME280;30462;52.446;-1.930;2023-08-20T02:08:18;100475.7656;;;;
44734;BME280;30462;52.446;-1.930;2023-08-20T02:09:18;100474.668;;;;
44734;BME280;30462;52.446;-1.930;2023-08-20T02:10:17;100474.332;;;;
44734;BME280;30462;52.446;-1.930;2023-08-20T02:11:17;100474.7344;;;;
44734;BME280;30462;52.446;-1.930;2023-08-20T02:12:18;100474.1641;;;;
44734;BME280;30462;52.446;-1.930;2023-08-20T02:13:18;100474.3945;;;;
44734;BME280;30462;52.446;-1.930;2023-08-20T02:14:18;100476.3359;;;;
44734;BME280;30462;52.446;-1.930;2023-08-20T02:15:18;100476.1523;;;;
44734;BME280;30462;52.446;-1.930;2023-08-20T02:16:18;100477.6602;;;;
44734;BME280;30462;52.446;-1.930;2023-08-20T02:17:18;100478.3633;;;;
44734;BME280;30462;52.446;-1.930;2023-08-20T02:18:18;100477.9492;;;;
44734;BME280;30462;52.446;-1.930;2023-08-20T02:19:19;100473.6367;;;;
44734;BME280;30462;52.446;-1.930;2023-08-20T02:20:18;100473.2305;;;;
44734;BME280;30462;52.446;-1.930;2023-08-20T02:21:18;100471.5391;;;;
44734;BME280;30462;52.446;-1.930;2023-08-20T02:22:18;100475.5586;;;;
44734;BME280;30462;52.446;-1.930;2023-08-20T02:23:18;100472.4258;;;;
44734;BME280;30462;52.446;-1.930;2023-08-20T02:24:18;100472.8398;;;;
44734;BME280;30462;52.446;-1.930;2023-08-20T02:25:18;100472.0703;;;;
44734;BME280;30462;52.446;-1.930;2023-08-20T02:26:17;100473.082;;;;
44734;BME280;30462;52.446;-1.930;2023-08-20T02:27:18;100470.9219;;;;
44734;BME280;30462;52.446;-1.930;2023-08-20T02:28:18;100471.3633;;;;
44734;BME280;30462;52.446;-1.930;2023-08-20T02:29:18;100474.7305;;;;
44734;BME280;30462;52.446;-1.930;2023-08-20T02:30:18;100474.3398;;;;
44734;BME280;30462;52.446;-1.930;2023-08-20T02:31:17;100476.8984;;;;
44734;BME280;30462;52.446;-1.930;2023-08-20T02:32:18;100476.7656;;;;
44734;BME280;30462;52.446;-1.930;2023-08-20T02:33:17;100475.5742;;;;
44734;BME280;30462;52.446;-1.930;2023-08-20T02:34:18;100478.1172;;;;
44734;BME280;30462;52.446;-1.930;2023-08-20T02:35:18;100477.6445;;;;
44734;BME280;30462;52.446;-1.930;2023-08-20T02:36:18;100481.6914;;;;
44734;BME280;30462;52.446;-1.930;2023-08-20T02:37:17;100476.8438;;;;
44734;BME280;30462;52.446;-1.930;2023-08-20T02:38:17;100478.2188;;;;
44734;BME280;30462;52.446;-1.930;2023-08-20T02:39:18;100481.0273;;;;
44734;BME280;30462;52.446;-1.930;2023-08-20T02:40:18;100480.2305;;;;
44734;BME280;30462;52.446;-1.930;2023-08-20T02:41:18;100485.5391;;;;
44734;BME280;30462;52.446;-1.930;2023-08-20T02:42:18;100483.75;;;;
44734;BME280;30462;52.446;-1.930;2023-08-20T02:44:17;100485.0195;;;;
44734;BME280;30462;52.446;-1.930;2023-08-20T02:45:18;100482.6484;;;;
44734;BME280;30462;52.446;-1.930;2023-08-20T02:46:18;100484.3711;;;;
44734;BME280;30462;52.446;-1.930;2023-08-20T02:47:18;100478.9141;;;;
44734;BME280;30462;52.446;-1.930;2023-08-20T02:48:18;100482.7656;;;;
44734;BME280;30462;52.446;-1.930;2023-08-20T02:49:18;100482.6758;;;;
44734;BME280;30462;52.446;-1.930;2023-08-20T02:50:18;100482.0352;;;;
44734;BME280;30462;52.446;-1.930;2023-08-20T02:51:18;100479.1602;;;;
44734;BME280;30462;52.446;-1.930;2023-08-20T02:52:18;100481.5781;;;;
44734;BME280;30462;52.446;-1.930;2023-08-20T02:53:18;100480.1289;;;;
44734;BME280;30462;52.446;-1.930;2023-08-20T02:54:18;100483.1602;;;;
44734;BME280;30462;52.446;-1.930;2023-08-20T02:55:18;100482.3164;;;;
44734;BME280;30462;52.446;-1.930;2023-08-20T02:56:18;100484.4609;;;;
44734;BME280;30462;52.446;-1.930;2023-08-20T02:57:18;100485.9688;;;;
44734;BME280;30462;52.446;-1.930;2023-08-20T02:58:17;100487.7656;;;;
44734;BME280;30462;52.446;-1.930;2023-08-20T02:59:18;100486.9883;;;;
44734;BME280;30462;52.446;-1.930;2023-08-20T03:00:18;100487.2344;;;;
44734;BME280;30462;52.446;-1.930;2023-08-20T03:01:18;100485.3672;;;;
44734;BME280;30462;52.446;-1.930;2023-08-20T03:02:18;100488.1484;;;;
44734;BME280;30462;52.446;-1.930;2023-08-20T03:03:18;100488.3672;;;;
44734;BME280;30462;52.446;-1.930;2023-08-20T03:04:18;100485.2344;;;;
44734;BME280;30462;52.446;-1.930;2023-08-20T03:05:18;100488.043;;;;
44734;BME280;30462;52.446;-1.930;2023-08-20T03:06:18;100493.5117;;;;
44734;BME280;30462;52.446;-1.930;2023-08-20T03:07:18;100491.7188;;;;
44734;BME280;30462;52.446;-1.930;2023-08-20T03:08:18;100489.3867;;;;
44734;BME280;30462;52.446;-1.930;2023-08-20T03:09:17;100491.582;;;;
44734;BME280;30462;52.446;-1.930;2023-08-20T03:10:19;100493.0547;;;;
44734;BME280;30462;52.446;-1.930;2023-08-20T03:11:18;100493.7734;;;;
44734;BME280;30462;52.446;-1.930;2023-08-20T03:12:18;100495.2109;;;;
44734;BME280;30462;52.446;-1.930;2023-08-20T03:13:18;100494.9375;;;;
44734;BME280;30462;52.446;-1.930;2023-08-20T03:14:17;100498.6797;;;;
44734;BME280;30462;52.446;-1.930;2023-08-20T03:15:18;100497.7813;;;;
44734;BME280;30462;52.446;-1.930;2023-08-20T03:16:18;100497.6641;;;;
44734;BME280;30462;52.446;-1.930;2023-08-20T03:17:18;100501.7969;;;;
44734;BME280;30462;52.446;-1.930;2023-08-20T03:18:18;100500.2891;;;;
44734;BME280;30462;52.446;-1.930;2023-08-20T03:19:17;100506.3945;;;;
44734;BME280;30462;52.446;-1.930;2023-08-20T03:20:18;100507.3516;;;;
44734;BME280;30462;52.446;-1.930;2023-08-20T03:21:18;100505.0313;;;;
44734;BME280;30462;52.446;-1.930;2023-08-20T03:22:18;100506.5898;;;;
44734;BME280;30462;52.446;-1.930;2023-08-20T03:23:18;100506.4844;;;;
44734;BME280;30462;52.446;-1.930;2023-08-20T03:24:18;100507.6875;;;;
44734;BME280;30462;52.446;-1.930;2023-08-20T03:25:17;100512.8281;;;;
44734;BME280;30462;52.446;-1.930;2023-08-20T03:26:18;100510.8281;;;;
44734;BME280;30462;52.446;-1.930;2023-08-20T03:27:18;100511.832;;;;
44734;BME280;30462;52.446;-1.930;2023-08-20T03:28:17;100511.2813;;;;
44734;BME280;30462;52.446;-1.930;2023-08-20T03:29:17;100514.8633;;;;
44734;BME280;30462;52.446;-1.930;2023-08-20T03:30:17;100516.207;;;;
44734;BME280;30462;52.446;-1.930;2023-08-20T03:31:18;100514.168;;;;
44734;BME280;30462;52.446;-1.930;2023-08-20T03:32:18;100515.5469;;;;
44734;BME280;30462;52.446;-1.930;2023-08-20T03:33:18;100521.3867;;;;
44734;BME280;30462;52.446;-1.930;2023-08-20T03:34:18;100521.5391;;;;
44734;BME280;30462;52.446;-1.930;2023-08-20T03:35:17;100516.2734;;;;
44734;BME280;30462;52.446;-1.930;2023-08-20T03:36:18;100520.6172;;;;
44734;BME280;30462;52.446;-1.930;2023-08-20T03:37:18;100519.793;;;;
44734;BME280;30462;52.446;-1.930;2023-08-20T03:38:17;100518.3008;;;;
44734;BME280;30462;52.446;-1.930;2023-08-20T03:39:18;100522.2188;;;;
44734;BME280;30462;52.446;-1.930;2023-08-20T03:40:18;100520.9727;;;;
44734;BME280;30462;52.446;-1.930;2023-08-20T03:41:18;100522.2852;;;;
44734;BME280;30462;52.446;-1.930;2023-08-20T03:42:18;100517.8203;;;;
44734;BME280;30462;52.446;-1.930;2023-08-20T03:43:18;100519.5742;;;;
44734;BME280;30462;52.446;-1.930;2023-08-20T03:44:18;100520.5313;;;;
44734;BME280;30462;52.446;-1.930;2023-08-20T03:45:18;100516.5234;;;;
44734;BME280;30462;52.446;-1.930;2023-08-20T03:46:17;100515.8164;;;;
44734;BME280;30462;52.446;-1.930;2023-08-20T03:47:18;100516.0195;;;;
44734;BME280;30462;52.446;-1.930;2023-08-20T03:48:18;100516.418;;;;
44734;BME280;30462;52.446;-1.930;2023-08-20T03:49:18;100511.6563;;;;
44734;BME280;30462;52.446;-1.930;2023-08-20T03:50:18;100517.5742;;;;
44734;BME280;30462;52.446;-1.930;2023-08-20T03:51:18;100517.8672;;;;
44734;BME280;30462;52.446;-1.930;2023-08-20T03:52:18;100520.3867;;;;
44734;BME280;30462;52.446;-1.930;2023-08-20T03:53:17;100524.1602;;;;
44734;BME280;30462;52.446;-1.930;2023-08-20T03:54:17;100526.9844;;;;
44734;BME280;30462;52.446;-1.930;2023-08-20T03:55:17;100530.4453;;;;
44734;BME280;30462;52.446;-1.930;2023-08-20T03:56:18;100529.5313;;;;
44734;BME280;30462;52.446;-1.930;2023-08-20T03:57:18;100529.6133;;;;
44734;BME280;30462;52.446;-1.930;2023-08-20T03:58:18;100530.1875;;;;
44734;BME280;30462;52.446;-1.930;2023-08-20T04:00:18;100530.5117;;;;
44734;BME280;30462;52.446;-1.930;2023-08-20T04:01:18;100528.2695;;;;
44734;BME280;30462;52.446;-1.930;2023-08-20T04:02:18;100527.168;;;;
44734;BME280;30462;52.446;-1.930;2023-08-20T04:03:17;100532.8164;;;;
44734;BME280;30462;52.446;-1.930;2023-08-20T04:04:18;100528.8906;;;;
44734;BME280;30462;52.446;-1.930;2023-08-20T04:05:19;100532.7813;;;;
44734;BME280;30462;52.446;-1.930;2023-08-20T04:06:18;100532.9688;;;;
44734;BME280;30462;52.446;-1.930;2023-08-20T04:07:17;100530.1563;;;;
44734;BME280;30462;52.446;-1.930;2023-08-20T04:08:18;100530.8633;;;;
44734;BME280;30462;52.446;-1.930;2023-08-20T04:09:18;100530.7266;;;;
44734;BME280;30462;52.446;-1.930;2023-08-20T04:10:18;100532.3984;;;;
44734;BME280;30462;52.446;-1.930;2023-08-20T04:11:17;100535.332;;;;
44734;BME280;30462;52.446;-1.930;2023-08-20T04:12:18;100534.0313;;;;
44734;BME280;30462;52.446;-1.930;2023-08-20T04:13:18;100531.5664;;;;
44734;BME280;30462;52.446;-1.930;2023-08-20T04:14:18;100529.0039;;;;
44734;BME280;30462;52.446;-1.930;2023-08-20T04:15:18;100530.9844;;;;
44734;BME280;30462;52.446;-1.930;2023-08-20T04:16:17;100528.3203;;;;
44734;BME280;30462;52.446;-1.930;2023-08-20T04:17:18;100527.6133;;;;
44734;BME280;30462;52.446;-1.930;2023-08-20T04:18:18;100528.2266;;;;
44734;BME280;30462;52.446;-1.930;2023-08-20T04:19:18;100531.1602;;;;
44734;BME280;30462;52.446;-1.930;2023-08-20T04:20:18;100529.25;;;;
44734;BME280;30462;52.446;-1.930;2023-08-20T04:21:18;100528.6289;;;;
44734;BME280;30462;52.446;-1.930;2023-08-20T04:22:17;100529.7539;;;;
44734;BME280;30462;52.446;-1.930;2023-08-20T04:23:18;100534.0586;;;;
44734;BME280;30462;52.446;-1.930;2023-08-20T04:24:18;100536.0469;;;;
44734;BME280;30462;52.446;-1.930;2023-08-20T04:25:18;100537.2695;;;;
44734;BME280;30462;52.446;-1.930;2023-08-20T04:26:18;100537.6016;;;;
44734;BME280;30462;52.446;-1.930;2023-08-20T04:27:18;100540.9688;;;;
44734;BME280;30462;52.446;-1.930;2023-08-20T04:28:17;100539.8633;;;;
44734;BME280;30462;52.446;-1.930;2023-08-20T04:29:17;100541.1602;;;;
44734;BME280;30462;52.446;-1.930;2023-08-20T04:30:18;100548.5469;;;;
44734;BME280;30462;52.446;-1.930;2023-08-20T04:31:18;100543.7305;;;;
44734;BME280;30462;52.446;-1.930;2023-08-20T04:32:18;100545.9883;;;;
44734;BME280;30462;52.446;-1.930;2023-08-20T04:33:17;100544.6133;;;;
44734;BME280;30462;52.446;-1.930;2023-08-20T04:34:17;100543;;;;
44734;BME280;30462;52.446;-1.930;2023-08-20T04:35:18;100543.8047;;;;
44734;BME280;30462;52.446;-1.930;2023-08-20T04:36:18;100548.207;;;;
44734;BME280;30462;52.446;-1.930;2023-08-20T04:37:18;100549.4258;;;;
44734;BME280;30462;52.446;-1.930;2023-08-20T04:38:19;100549.957;;;;
44734;BME280;30462;52.446;-1.930;2023-08-20T04:39:18;100545.6484;;;;
44734;BME280;30462;52.446;-1.930;2023-08-20T04:40:18;100550.1914;;;;
44734;BME280;30462;52.446;-1.930;2023-08-20T04:41:18;100547.3789;;;;
44734;BME280;30462;52.446;-1.930;2023-08-20T04:42:18;100551.9063;;;;
44734;BME280;30462;52.446;-1.930;2023-08-20T04:43:18;100550.2617;;;;
44734;BME280;30462;52.446;-1.930;2023-08-20T04:44:17;100551.4102;;;;
44734;BME280;30462;52.446;-1.930;2023-08-20T04:45:18;100555.4414;;;;
44734;BME280;30462;52.446;-1.930;2023-08-20T04:46:18;100557.0938;;;;
44734;BME280;30462;52.446;-1.930;2023-08-20T04:47:18;100562.2188;;;;
44734;BME280;30462;52.446;-1.930;2023-08-20T04:48:18;100566.1406;;;;
44734;BME280;30462;52.446;-1.930;2023-08-20T04:49:18;100566.5977;;;;
44734;BME280;30462;52.446;-1.930;2023-08-20T04:50:17;100569.3359;;;;
44734;BME280;30462;52.446;-1.930;2023-08-20T04:51:18;100573.2031;;;;
44734;BME280;30462;52.446;-1.930;2023-08-20T04:52:18;100576.6602;;;;
44734;BME280;30462;52.446;-1.930;2023-08-20T04:53:18;100576.2734;;;;
44734;BME280;30462;52.446;-1.930;2023-08-20T04:54:18;100573.5625;;;;
44734;BME280;30462;52.446;-1.930;2023-08-20T04:55:18;100575.8398;;;;
44734;BME280;30462;52.446;-1.930;2023-08-20T04:56:18;100574.6836;;;;
44734;BME280;30462;52.446;-1.930;2023-08-20T04:57:18;100577.3242;;;;
44734;BME280;30462;52.446;-1.930;2023-08-20T04:58:17;100575.3477;;;;
44734;BME280;30462;52.446;-1.930;2023-08-20T04:59:18;100574.8906;;;;
44734;BME280;30462;52.446;-1.930;2023-08-20T05:00:18;100579.6992;;;;
44734;BME280;30462;52.446;-1.930;2023-08-20T05:01:18;100577.5078;;;;
44734;BME280;30462;52.446;-1.930;2023-08-20T05:02:18;100580.6016;;;;
44734;BME280;30462;52.446;-1.930;2023-08-20T05:03:18;100580.1797;;;;
44734;BME280;30462;52.446;-1.930;2023-08-20T05:04:18;100584.3594;;;;
44734;BME280;30462;52.446;-1.930;2023-08-20T05:05:18;100579.6719;;;;
44734;BME280;30462;52.446;-1.930;2023-08-20T05:06:18;100577.6836;;;;
44734;BME280;30462;52.446;-1.930;2023-08-20T05:07:18;100575.918;;;;
44734;BME280;30462;52.446;-1.930;2023-08-20T05:08:17;100580.4961;;;;
44734;BME280;30462;52.446;-1.930;2023-08-20T05:09:17;100578.3945;;;;
44734;BME280;30462;52.446;-1.930;2023-08-20T05:10:18;100578.0938;;;;
44734;BME280;30462;52.446;-1.930;2023-08-20T05:11:18;100572.9805;;;;
44734;BME280;30462;52.446;-1.930;2023-08-20T05:12:17;100575.3359;;;;
44734;BME280;30462;52.446;-1.930;2023-08-20T05:13:17;100580.3203;;;;
44734;BME280;30462;52.446;-1.930;2023-08-20T05:14:18;100581.1914;;;;
44734;BME280;30462;52.446;-1.930;2023-08-20T05:15:18;100577.9531;;;;
44734;BME280;30462;52.446;-1.930;2023-08-20T05:16:18;100579.8125;;;;
44734;BME280;30462;52.446;-1.930;2023-08-20T05:17:18;100577.4023;;;;
44734;BME280;30462;52.446;-1.930;2023-08-20T05:18:18;100577.0977;;;;
44734;BME280;30462;52.446;-1.930;2023-08-20T05:19:18;100578.6016;;;;
44734;BME280;30462;52.446;-1.930;2023-08-20T05:20:18;100579.4844;;;;
44734;BME280;30462;52.446;-1.930;2023-08-20T05:21:18;100576.5078;;;;
44734;BME280;30462;52.446;-1.930;2023-08-20T05:22:18;100582.7969;;;;
44734;BME280;30462;52.446;-1.930;2023-08-20T05:23:18;100583.5078;;;;
44734;BME280;30462;52.446;-1.930;2023-08-20T05:24:17;100580.2539;;;;
44734;BME280;30462;52.446;-1.930;2023-08-20T05:25:18;100587.4297;;;;
44734;BME280;30462;52.446;-1.930;2023-08-20T05:26:18;100583.5039;;;;
44734;BME280;30462;52.446;-1.930;2023-08-20T05:27:18;100583.1758;;;;
44734;BME280;30462;52.446;-1.930;2023-08-20T05:28:18;100580.8359;;;;
44734;BME280;30462;52.446;-1.930;2023-08-20T05:29:17;100585.2539;;;;
44734;BME280;30462;52.446;-1.930;2023-08-20T05:30:18;100582.6055;;;;
44734;BME280;30462;52.446;-1.930;2023-08-20T05:31:18;100581.6055;;;;
44734;BME280;30462;52.446;-1.930;2023-08-20T05:32:18;100580.1914;;;;
44734;BME280;30462;52.446;-1.930;2023-08-20T05:33:17;100581.8281;;;;
44734;BME280;30462;52.446;-1.930;2023-08-20T05:34:18;100581.6211;;;;
44734;BME280;30462;52.446;-1.930;2023-08-20T05:35:18;100582.457;;;;
44734;BME280;30462;52.446;-1.930;2023-08-20T05:36:18;100576.9844;;;;
44734;BME280;30462;52.446;-1.930;2023-08-20T05:37:18;100578.6367;;;;
44734;BME280;30462;52.446;-1.930;2023-08-20T05:38:18;100579.7383;;;;
44734;BME280;30462;52.446;-1.930;2023-08-20T05:39:18;100581.7188;;;;
44734;BME280;30462;52.446;-1.930;2023-08-20T05:40:17;100582.0117;;;;
44734;BME280;30462;52.446;-1.930;2023-08-20T05:41:18;100588.0586;;;;
44734;BME280;30462;52.446;-1.930;2023-08-20T05:42:18;100589.3711;;;;
44734;BME280;30462;52.446;-1.930;2023-08-20T05:43:18;100593.3828;;;;
44734;BME280;30462;52.446;-1.930;2023-08-20T05:44:18;100596.6641;;;;
44734;BME280;30462;52.446;-1.930;2023-08-20T05:45:18;100602.2344;;;;
44734;BME280;30462;52.446;-1.930;2023-08-20T05:46:18;100601.2969;;;;
44734;BME280;30462;52.446;-1.930;2023-08-20T05:47:17;100607.5898;;;;
44734;BME280;30462;52.446;-1.930;2023-08-20T05:48:18;100607.7461;;;;
44734;BME280;30462;52.446;-1.930;2023-08-20T05:49:18;100612.8867;;;;
44734;BME280;30462;52.446;-1.930;2023-08-20T05:50:18;100607.125;;;;
44734;BME280;30462;52.446;-1.930;2023-08-20T05:51:17;100614.2734;;;;
44734;BME280;30462;52.446;-1.930;2023-08-20T05:52:18;100618.6953;;;;